Time;durP1;ratioP1;P1;durP2;ratioP2;P2;SDS_P1;SDS_P2;PMS_P1;PMS_P2;Temp;Humidity;BMP_temperature;BMP_pressure;BME280_temperature;BME280_humidity;BME280_pressure;Samples;Min_cycle;Max_cycle;Signal;HPM_P1;HPM_P2
2023/08/17 00:00:58;;;;;;;7.78;3.72;;;17.00;99.90;;;;;;5065733;28;20035;-85
2023/08/17 00:03:24;;;;;;;6.95;3.97;;;17.00;99.90;;;;;;5077374;28;20017;-84
2023/08/17 00:05:50;;;;;;;10.57;3.30;;;17.00;99.90;;;;;;5060042;28;20127;-84
2023/08/17 00:08:15;;;;;;;9.73;3.25;;;16.90;99.90;;;;;;5077632;28;20060;-84
2023/08/17 00:14:30;;;;;;;8.10;3.45;;;16.80;99.90;;;;;;5072258;28;20083;-84
2023/08/17 00:16:56;;;;;;;8.63;3.78;;;16.80;99.90;;;;;;5081004;28;20028;-84
2023/08/17 00:19:22;;;;;;;6.60;3.70;;;16.80;99.90;;;;;;5055448;28;20040;-84
2023/08/17 00:21:48;;;;;;;10.68;3.33;;;16.70;99.90;;;;;;5064400;28;20027;-84
2023/08/17 00:24:13;;;;;;;8.10;3.60;;;16.70;99.90;;;;;;5075635;28;20036;-84
2023/08/17 00:26:39;;;;;;;8.85;3.33;;;16.70;99.90;;;;;;5069916;28;20089;-83
2023/08/17 00:29:04;;;;;;;11.32;3.33;;;16.70;99.90;;;;;;5080135;28;20020;-84
2023/08/17 00:31:30;;;;;;;9.35;3.55;;;16.70;99.90;;;;;;5060971;28;20480;-84
2023/08/17 00:33:56;;;;;;;6.35;3.25;;;16.70;99.90;;;;;;5059216;28;20024;-84
2023/08/17 00:36:21;;;;;;;5.55;2.20;;;16.70;99.90;;;;;;5083077;28;20376;-85
2023/08/17 00:38:47;;;;;;;4.60;3.08;;;16.70;99.90;;;;;;5063768;28;20422;-84
2023/08/17 00:41:13;;;;;;;5.13;2.75;;;16.70;99.90;;;;;;5069020;28;20031;-84
2023/08/17 00:43:38;;;;;;;7.57;3.38;;;16.60;99.90;;;;;;5064699;28;20123;-85
2023/08/17 00:46:38;;;;;;;6.20;2.60;;;16.70;99.90;;;;;;5079896;28;20032;-84
2023/08/17 00:49:05;;;;;;;7.82;3.05;;;16.70;99.90;;;;;;5067712;28;20749;-85
2023/08/17 00:51:32;;;;;;;7.95;2.30;;;16.80;99.90;;;;;;5055780;28;20064;-84
2023/08/17 00:53:59;;;;;;;3.85;2.42;;;16.80;99.90;;;;;;5075055;28;20078;-84
2023/08/17 00:56:38;;;;;;;6.40;2.85;;;16.80;99.90;;;;;;5081914;28;20025;-85
2023/08/17 00:59:04;;;;;;;6.10;2.53;;;16.80;99.90;;;;;;5080163;28;20029;-84
2023/08/17 01:01:29;;;;;;;6.72;2.80;;;16.90;99.90;;;;;;5084180;28;20039;-85
2023/08/17 01:03:55;;;;;;;3.85;2.33;;;17.00;99.90;;;;;;5064151;28;20043;-85
2023/08/17 01:06:21;;;;;;;5.55;2.92;;;17.00;99.90;;;;;;5062027;28;20157;-84
2023/08/17 01:08:47;;;;;;;5.88;2.65;;;17.00;99.90;;;;;;5064931;28;20037;-84
2023/08/17 01:11:24;;;;;;;4.45;2.70;;;17.10;99.90;;;;;;5080076;28;20403;-84
2023/08/17 01:13:59;;;;;;;6.18;2.50;;;17.20;99.90;;;;;;5068036;28;20399;-85
2023/08/17 01:16:33;;;;;;;12.73;2.80;;;17.20;99.90;;;;;;5064479;28;20421;-84
2023/08/17 01:19:01;;;;;;;7.82;2.75;;;17.20;99.90;;;;;;5061232;28;20045;-84
2023/08/17 01:21:40;;;;;;;6.22;3.42;;;17.20;99.90;;;;;;5080936;28;20058;-84
2023/08/17 01:24:06;;;;;;;6.95;2.85;;;17.10;99.90;;;;;;5061012;28;20036;-85
2023/08/17 01:26:32;;;;;;;3.78;2.63;;;17.20;99.90;;;;;;5085013;28;20047;-84
2023/08/17 01:28:58;;;;;;;4.38;2.80;;;17.20;99.90;;;;;;5061304;28;20470;-84
2023/08/17 01:31:46;;;;;;;9.32;4.22;;;17.20;99.90;;;;;;5082347;28;20098;-85
2023/08/17 01:34:19;;;;;;;5.70;3.25;;;17.10;99.90;;;;;;5063588;28;20809;-84
2023/08/17 01:36:53;;;;;;;9.13;4.50;;;17.10;99.90;;;;;;5064638;28;20388;-84
2023/08/17 01:39:23;;;;;;;6.55;3.33;;;17.20;99.90;;;;;;5063146;28;20025;-84
2023/08/17 01:41:51;;;;;;;4.10;3.10;;;17.10;99.90;;;;;;5077895;28;20082;-84
2023/08/17 01:44:16;;;;;;;6.40;3.33;;;17.00;99.90;;;;;;5082659;28;20509;-85
2023/08/17 01:46:44;;;;;;;4.75;3.25;;;17.00;99.90;;;;;;5058975;28;20033;-84
2023/08/17 01:49:09;;;;;;;7.35;4.40;;;16.90;99.90;;;;;;5098646;28;20055;-84
2023/08/17 01:51:35;;;;;;;7.38;3.63;;;17.00;99.90;;;;;;5063186;28;20028;-84
2023/08/17 01:54:01;;;;;;;5.65;3.90;;;16.90;99.90;;;;;;5061749;28;20111;-84
2023/08/17 01:56:26;;;;;;;4.78;3.42;;;16.90;99.90;;;;;;5064472;28;20050;-85
2023/08/17 01:58:52;;;;;;;8.73;3.88;;;16.80;99.90;;;;;;5063427;28;20024;-85
2023/08/17 02:01:17;;;;;;;4.88;3.95;;;16.90;99.90;;;;;;5065779;28;20027;-85
2023/08/17 02:03:43;;;;;;;6.97;4.25;;;16.80;99.90;;;;;;5064437;28;20024;-84
2023/08/17 02:06:09;;;;;;;8.48;3.75;;;16.80;99.90;;;;;;5059927;28;20502;-84
2023/08/17 02:08:37;;;;;;;9.70;4.78;;;16.80;99.90;;;;;;5081527;28;20038;-84
2023/08/17 02:11:02;;;;;;;10.32;4.72;;;16.80;99.90;;;;;;5077940;28;20029;-84
2023/08/17 02:13:28;;;;;;;6.80;4.63;;;16.80;99.90;;;;;;5082520;28;20032;-84
2023/08/17 02:15:59;;;;;;;6.78;4.40;;;16.80;99.90;;;;;;5060880;28;20032;-84
2023/08/17 02:18:25;;;;;;;8.75;4.40;;;16.70;99.90;;;;;;5064239;28;20020;-84
2023/08/17 02:20:51;;;;;;;7.35;4.47;;;16.70;99.90;;;;;;5078747;28;20020;-85
2023/08/17 02:23:20;;;;;;;7.38;4.97;;;16.80;99.90;;;;;;5067533;28;20104;-84
2023/08/17 02:25:45;;;;;;;7.05;4.90;;;16.80;99.90;;;;;;5063114;28;20036;-85
2023/08/17 02:28:12;;;;;;;7.50;4.70;;;16.80;99.90;;;;;;5060394;28;20050;-85
2023/08/17 02:30:38;;;;;;;7.50;5.25;;;16.80;99.90;;;;;;5063194;28;20032;-85
2023/08/17 02:33:04;;;;;;;9.98;5.38;;;16.70;99.90;;;;;;5062947;28;20467;-85
2023/08/17 02:35:30;;;;;;;8.82;5.10;;;16.70;99.90;;;;;;5081727;28;20036;-85
2023/08/17 02:37:55;;;;;;;6.72;5.88;;;16.60;99.90;;;;;;5082536;28;20387;-85
2023/08/17 02:40:21;;;;;;;8.55;5.63;;;16.60;99.90;;;;;;5057481;28;20073;-85
2023/08/17 02:42:47;;;;;;;10.20;5.75;;;16.50;99.90;;;;;;5083364;28;20027;-85
2023/08/17 02:45:13;;;;;;;7.93;5.70;;;16.50;99.90;;;;;;5059156;28;20032;-84
2023/08/17 02:47:38;;;;;;;14.32;6.10;;;16.50;99.90;;;;;;5067044;28;20498;-85
2023/08/17 02:50:05;;;;;;;7.18;5.38;;;16.50;99.90;;;;;;5059094;28;20119;-85
2023/08/17 02:52:34;;;;;;;9.40;6.43;;;16.40;99.90;;;;;;5080753;28;20032;-85
2023/08/17 02:55:00;;;;;;;12.15;6.20;;;16.30;99.90;;;;;;5060910;28;20388;-85
2023/08/17 02:57:26;;;;;;;8.35;6.68;;;16.30;99.90;;;;;;5065840;28;20024;-85
2023/08/17 02:59:51;;;;;;;9.35;7.32;;;16.30;99.90;;;;;;5078816;28;20036;-85
2023/08/17 03:02:17;;;;;;;9.57;5.97;;;16.30;99.90;;;;;;5060523;28;20032;-85
2023/08/17 03:04:46;;;;;;;11.63;6.45;;;16.30;99.90;;;;;;5063259;28;20028;-85
2023/08/17 03:07:12;;;;;;;8.15;6.60;;;16.30;99.90;;;;;;5064201;28;20916;-85
2023/08/17 03:09:37;;;;;;;7.65;6.05;;;16.30;99.90;;;;;;5060884;28;20029;-85
2023/08/17 03:12:03;;;;;;;7.90;5.97;;;16.30;99.90;;;;;;5055698;28;20020;-85
2023/08/17 03:14:29;;;;;;;8.65;6.72;;;16.20;99.90;;;;;;5056768;28;20499;-85
2023/08/17 03:16:54;;;;;;;10.18;7.28;;;16.20;99.90;;;;;;5065918;28;20016;-85
2023/08/17 03:19:20;;;;;;;8.93;7.72;;;16.20;99.90;;;;;;5058183;28;20048;-85
2023/08/17 03:21:46;;;;;;;15.77;7.32;;;16.30;99.90;;;;;;5062799;28;20032;-85
2023/08/17 03:24:12;;;;;;;13.48;6.38;;;16.30;99.90;;;;;;5076868;28;20396;-85
2023/08/17 03:26:37;;;;;;;9.88;7.35;;;16.30;99.90;;;;;;5062321;28;20036;-85
2023/08/17 03:29:03;;;;;;;9.23;6.97;;;16.30;99.90;;;;;;5057151;28;20061;-85
2023/08/17 03:31:29;;;;;;;8.50;6.35;;;16.30;99.90;;;;;;5064813;28;20831;-85
2023/08/17 03:33:57;;;;;;;9.45;6.28;;;16.30;99.90;;;;;;5045095;28;20064;-85
2023/08/17 03:36:23;;;;;;;14.68;6.68;;;16.30;99.90;;;;;;5083940;28;20056;-85
2023/08/17 03:38:49;;;;;;;11.60;6.75;;;16.20;99.90;;;;;;5062494;28;20437;-85
2023/08/17 03:41:15;;;;;;;9.45;7.13;;;16.20;99.90;;;;;;5060779;28;20024;-85
2023/08/17 03:43:41;;;;;;;9.48;6.15;;;16.20;99.90;;;;;;5062730;28;20102;-84
2023/08/17 03:46:06;;;;;;;8.50;6.22;;;16.30;99.90;;;;;;5063568;28;20038;-85
2023/08/17 03:48:34;;;;;;;8.50;6.40;;;16.30;99.90;;;;;;5056845;28;20512;-84
2023/08/17 03:51:01;;;;;;;7.50;5.72;;;16.40;99.90;;;;;;5065762;28;20028;-85
2023/08/17 03:53:27;;;;;;;8.63;5.80;;;16.40;99.90;;;;;;5075219;28;20024;-85
2023/08/17 03:55:53;;;;;;;14.32;7.43;;;16.40;99.90;;;;;;5067522;28;20049;-85
2023/08/17 03:58:18;;;;;;;10.80;5.50;;;16.50;99.90;;;;;;5060169;28;20054;-85
2023/08/17 04:00:51;;;;;;;7.60;5.30;;;16.50;99.90;;;;;;5062528;28;20021;-85
2023/08/17 04:03:21;;;;;;;8.73;5.45;;;16.50;99.90;;;;;;5062532;28;20387;-85
2023/08/17 04:05:47;;;;;;;7.85;5.30;;;16.50;99.90;;;;;;5080534;28;20031;-85
2023/08/17 04:08:12;;;;;;;8.68;5.57;;;16.40;99.90;;;;;;5060192;28;20021;-85
2023/08/17 04:10:39;;;;;;;8.13;5.57;;;16.40;99.90;;;;;;5058856;28;20031;-85
2023/08/17 04:13:05;;;;;;;8.88;5.38;;;16.40;99.90;;;;;;5063403;28;20551;-85
2023/08/17 04:15:30;;;;;;;8.77;5.63;;;16.30;99.90;;;;;;5056880;28;20033;-85
2023/08/17 04:17:56;;;;;;;9.48;5.00;;;16.30;99.90;;;;;;5055774;28;20020;-85
2023/08/17 04:20:22;;;;;;;14.90;5.53;;;16.20;99.90;;;;;;5067214;28;20047;-86
2023/08/17 04:22:48;;;;;;;7.90;5.75;;;16.10;99.90;;;;;;5063325;28;20679;-86
2023/08/17 04:25:15;;;;;;;9.65;6.30;;;16.10;99.90;;;;;;5064416;28;20027;-86
2023/08/17 04:27:40;;;;;;;10.40;6.35;;;16.10;99.90;;;;;;5058324;28;20510;-87
2023/08/17 04:30:07;;;;;;;7.63;6.13;;;16.10;99.90;;;;;;5065871;28;20036;-86
2023/08/17 04:32:42;;;;;;;10.32;6.07;;;16.00;99.90;;;;;;5061826;28;20415;-86
2023/08/17 04:35:09;;;;;;;9.55;6.32;;;16.00;99.90;;;;;;5075330;28;20029;-86
2023/08/17 04:37:35;;;;;;;10.52;6.15;;;16.00;99.90;;;;;;5061361;28;20035;-86
2023/08/17 04:40:01;;;;;;;7.95;5.72;;;16.00;99.90;;;;;;5060794;28;20471;-86
2023/08/17 04:42:27;;;;;;;7.53;5.88;;;16.00;99.90;;;;;;5060940;28;20016;-86
2023/08/17 04:44:53;;;;;;;12.77;6.80;;;16.00;99.90;;;;;;5075384;28;20094;-87
2023/08/17 04:47:19;;;;;;;9.50;7.05;;;16.00;99.90;;;;;;5061720;28;20028;-86
2023/08/17 04:49:45;;;;;;;9.32;6.45;;;16.10;99.90;;;;;;5076315;28;20017;-86
2023/08/17 04:52:11;;;;;;;12.63;7.15;;;16.10;99.90;;;;;;5080688;28;20070;-86
2023/08/17 04:54:36;;;;;;;11.75;7.88;;;16.20;99.90;;;;;;5077075;28;20025;-86
2023/08/17 04:57:04;;;;;;;10.35;6.72;;;16.20;99.90;;;;;;5083107;28;20077;-86
2023/08/17 04:59:30;;;;;;;10.18;6.93;;;16.30;99.90;;;;;;5066040;28;20036;-87
2023/08/17 05:01:55;;;;;;;9.52;7.47;;;16.30;99.90;;;;;;5057879;28;20021;-86
2023/08/17 05:04:21;;;;;;;10.63;7.38;;;16.40;99.90;;;;;;5062607;28;20154;-87
2023/08/17 05:06:47;;;;;;;15.38;7.45;;;16.40;99.90;;;;;;5059441;28;20032;-86
2023/08/17 05:09:19;;;;;;;10.25;6.78;;;16.50;99.90;;;;;;5084016;28;20106;-86
2023/08/17 05:11:45;;;;;;;9.77;6.75;;;16.50;99.90;;;;;;5065583;28;20070;-86
2023/08/17 05:14:11;;;;;;;8.75;6.88;;;16.60;99.90;;;;;;5062746;28;20028;-86
2023/08/17 05:16:37;;;;;;;8.48;6.35;;;16.60;99.90;;;;;;5066896;28;20017;-86
2023/08/17 05:19:25;;;;;;;11.07;7.18;;;16.70;99.90;;;;;;5061207;28;20115;-86
2023/08/17 05:21:53;;;;;;;8.90;7.07;;;16.80;99.90;;;;;;5071775;28;20028;-86
2023/08/17 05:24:20;;;;;;;11.02;7.05;;;16.90;99.90;;;;;;5062598;28;20039;-87
2023/08/17 05:26:46;;;;;;;9.63;7.10;;;17.00;99.90;;;;;;5082383;28;20108;-86
2023/08/17 05:29:13;;;;;;;10.18;7.05;;;17.10;99.90;;;;;;5064965;28;20078;-86
2023/08/17 05:31:45;;;;;;;11.88;7.45;;;17.20;99.90;;;;;;5069065;28;20111;-87
2023/08/17 05:34:20;;;;;;;14.52;8.48;;;17.20;99.90;;;;;;5066585;28;20115;-87
2023/08/17 05:36:46;;;;;;;12.15;7.40;;;17.30;99.90;;;;;;5060016;28;20029;-86
2023/08/17 05:39:13;;;;;;;10.90;7.28;;;17.40;99.90;;;;;;5066678;28;20202;-86
2023/08/17 05:41:38;;;;;;;14.68;7.15;;;17.50;99.90;;;;;;5055867;28;20039;-87
2023/08/17 05:44:06;;;;;;;8.27;6.45;;;17.60;99.90;;;;;;5058081;28;20033;-86
2023/08/17 05:46:33;;;;;;;11.38;6.53;;;17.70;99.90;;;;;;5075221;28;20033;-86
2023/08/17 05:48:59;;;;;;;9.60;6.60;;;17.80;99.90;;;;;;5077793;28;20032;-87
2023/08/17 05:51:25;;;;;;;9.85;7.30;;;17.90;99.90;;;;;;5074693;28;20082;-86
2023/08/17 05:53:51;;;;;;;11.80;6.38;;;18.10;99.90;;;;;;5075583;28;20450;-88
2023/08/17 05:56:17;;;;;;;9.60;6.38;;;18.30;99.90;;;;;;5076073;28;20107;-86
2023/08/17 05:58:42;;;;;;;9.70;6.38;;;18.30;99.90;;;;;;5059170;28;20028;-87
2023/08/17 06:01:09;;;;;;;7.85;6.35;;;18.40;99.90;;;;;;5059065;28;20052;-87
2023/08/17 06:03:36;;;;;;;10.25;6.55;;;18.60;99.90;;;;;;5068341;28;20033;-86
2023/08/17 06:06:05;;;;;;;9.13;6.30;;;18.70;99.90;;;;;;5053504;28;20081;-86
2023/08/17 06:08:31;;;;;;;10.88;6.50;;;18.90;99.90;;;;;;5057715;28;20031;-86
2023/08/17 06:10:57;;;;;;;9.00;6.75;;;19.00;99.90;;;;;;5057686;28;20035;-86
2023/08/17 06:13:23;;;;;;;11.35;6.30;;;19.10;99.90;;;;;;5060128;28;20028;-86
2023/08/17 06:15:49;;;;;;;10.77;6.50;;;19.20;99.90;;;;;;5074631;28;20056;-86
2023/08/17 06:18:15;;;;;;;12.77;6.70;;;19.30;99.90;;;;;;5059075;28;20024;-86
2023/08/17 06:20:41;;;;;;;11.55;6.85;;;19.40;99.90;;;;;;5076121;28;20025;-85
2023/08/17 06:23:07;;;;;;;8.13;6.53;;;19.60;99.90;;;;;;5057635;28;20444;-85
2023/08/17 06:25:34;;;;;;;11.02;6.22;;;19.70;99.90;;;;;;5073884;28;20047;-86
2023/08/17 06:28:00;;;;;;;11.48;6.82;;;19.70;99.90;;;;;;5057168;28;20032;-86
2023/08/17 06:30:26;;;;;;;10.52;6.85;;;19.80;99.90;;;;;;5056540;28;20123;-86
2023/08/17 06:32:52;;;;;;;9.18;6.55;;;19.90;99.90;;;;;;5075220;28;20059;-86
2023/08/17 06:35:18;;;;;;;9.30;6.35;;;20.00;99.90;;;;;;5076346;28;20020;-86
2023/08/17 06:37:43;;;;;;;7.18;6.28;;;20.10;99.90;;;;;;5075240;28;20028;-86
2023/08/17 06:40:09;;;;;;;11.68;6.35;;;20.20;99.90;;;;;;5079425;28;20051;-86
2023/08/17 06:42:35;;;;;;;11.15;6.43;;;20.20;99.90;;;;;;5074212;28;20063;-86
2023/08/17 06:45:02;;;;;;;8.52;6.28;;;20.30;99.90;;;;;;5058168;28;20061;-86
2023/08/17 06:47:28;;;;;;;9.07;6.30;;;20.20;99.90;;;;;;5072693;28;20074;-86
2023/08/17 06:49:55;;;;;;;9.93;6.53;;;20.20;99.90;;;;;;5074457;28;20024;-86
2023/08/17 06:52:20;;;;;;;9.95;6.50;;;20.20;99.90;;;;;;5057548;28;20086;-86
2023/08/17 06:54:46;;;;;;;7.88;5.93;;;20.30;99.90;;;;;;5057864;28;20033;-86
2023/08/17 06:57:12;;;;;;;8.95;7.03;;;20.40;99.90;;;;;;5058669;28;20039;-86
2023/08/17 06:59:38;;;;;;;8.45;6.07;;;20.40;99.90;;;;;;5056110;28;20044;-87
2023/08/17 07:02:03;;;;;;;9.15;6.93;;;20.50;99.90;;;;;;5057125;28;20460;-87
2023/08/17 07:04:29;;;;;;;9.43;7.18;;;20.70;99.90;;;;;;5073378;28;20033;-86
2023/08/17 07:06:55;;;;;;;10.95;7.35;;;20.70;99.90;;;;;;5058214;28;20032;-87
2023/08/17 07:09:21;;;;;;;8.98;6.70;;;20.80;99.90;;;;;;5075293;28;20025;-87
2023/08/17 07:11:46;;;;;;;12.25;7.65;;;21.00;99.90;;;;;;5059534;28;20029;-87
2023/08/17 07:14:12;;;;;;;10.52;7.68;;;21.00;99.90;;;;;;5058479;28;20422;-86
2023/08/17 07:16:38;;;;;;;8.65;7.47;;;21.10;99.90;;;;;;5072745;28;20032;-86
2023/08/17 07:19:04;;;;;;;9.63;7.18;;;21.10;99.90;;;;;;5076799;28;20043;-87
2023/08/17 07:21:30;;;;;;;10.88;7.43;;;21.20;99.90;;;;;;5062909;28;20124;-86
2023/08/17 07:23:56;;;;;;;19.67;7.85;;;21.20;99.90;;;;;;5058564;28;20490;-87
2023/08/17 07:26:22;;;;;;;11.77;6.93;;;21.20;99.90;;;;;;5062228;28;20218;-86
2023/08/17 07:28:49;;;;;;;8.48;7.20;;;21.30;99.90;;;;;;5056420;28;20122;-86
2023/08/17 07:31:15;;;;;;;10.63;6.75;;;21.40;99.90;;;;;;5074928;28;20032;-87
2023/08/17 07:33:41;;;;;;;13.25;7.10;;;21.40;99.90;;;;;;5073495;28;20112;-86
2023/08/17 07:36:09;;;;;;;10.02;6.85;;;21.50;99.90;;;;;;5057215;28;20067;-87
2023/08/17 07:38:35;;;;;;;8.82;6.53;;;21.50;99.90;;;;;;5074368;28;20552;-87
2023/08/17 07:41:00;;;;;;;10.77;7.70;;;21.50;99.90;;;;;;5071747;28;20112;-87
2023/08/17 07:43:26;;;;;;;11.15;6.95;;;21.50;99.90;;;;;;5052806;28;20111;-87
2023/08/17 07:45:56;;;;;;;10.93;7.13;;;21.60;99.90;;;;;;5056092;28;20099;-87
2023/08/17 07:48:22;;;;;;;9.20;7.13;;;21.60;99.90;;;;;;5075019;28;20029;-87
2023/08/17 07:50:52;;;;;;;12.55;8.35;;;21.70;99.90;;;;;;5074911;28;20628;-87
2023/08/17 07:53:18;;;;;;;15.73;8.13;;;21.80;99.90;;;;;;5069569;28;20036;-87
2023/08/17 07:55:45;;;;;;;11.23;8.75;;;21.90;99.90;;;;;;5069917;28;20032;-87
2023/08/17 07:58:10;;;;;;;14.77;8.63;;;21.90;99.90;;;;;;5048408;28;20033;-87
2023/08/17 08:00:36;;;;;;;11.75;7.97;;;21.90;99.90;;;;;;5086525;28;20143;-87
2023/08/17 08:03:02;;;;;;;9.82;8.02;;;21.90;99.90;;;;;;5047663;28;20021;-86
2023/08/17 08:05:28;;;;;;;10.25;7.85;;;22.00;99.90;;;;;;5066481;28;20499;-87
2023/08/17 08:07:53;;;;;;;15.18;7.75;;;22.00;99.90;;;;;;5078595;28;20048;-87
2023/08/17 08:10:19;;;;;;;12.63;7.22;;;22.20;99.90;;;;;;5057818;28;20029;-87
2023/08/17 08:12:45;;;;;;;10.20;7.88;;;22.30;99.90;;;;;;5078559;28;20113;-87
2023/08/17 08:15:10;;;;;;;10.43;7.55;;;22.40;99.90;;;;;;5085428;28;20031;-88
2023/08/17 08:17:36;;;;;;;12.52;8.43;;;22.50;99.90;;;;;;5065048;28;20471;-87
2023/08/17 08:20:03;;;;;;;10.25;7.53;;;22.50;99.90;;;;;;5078682;28;20610;-87
2023/08/17 08:22:28;;;;;;;12.60;6.90;;;22.60;99.90;;;;;;5065688;28;20043;-87
2023/08/17 08:24:54;;;;;;;11.20;6.57;;;22.60;99.90;;;;;;5078268;28;20410;-88
2023/08/17 08:27:20;;;;;;;10.75;7.57;;;22.80;99.90;;;;;;5060123;28;20028;-88
2023/08/17 08:29:46;;;;;;;9.40;7.45;;;22.90;99.90;;;;;;5081309;28;20084;-88
2023/08/17 08:32:12;;;;;;;10.60;7.38;;;22.90;99.90;;;;;;5078880;28;20032;-88
2023/08/17 08:34:38;;;;;;;9.38;7.10;;;23.10;99.90;;;;;;5061381;28;20387;-88
2023/08/17 08:37:03;;;;;;;8.20;6.90;;;23.30;99.90;;;;;;5082649;28;20464;-88
2023/08/17 08:39:29;;;;;;;10.00;6.20;;;23.70;99.90;;;;;;5063600;28;20212;-88
2023/08/17 08:41:55;;;;;;;11.02;6.97;;;24.20;99.90;;;;;;5059914;28;20549;-88
2023/08/17 08:44:22;;;;;;;8.95;7.07;;;24.50;99.90;;;;;;5070913;28;20488;-88
2023/08/17 08:46:48;;;;;;;9.63;7.07;;;24.70;99.90;;;;;;5091461;28;20052;-88
2023/08/17 08:49:21;;;;;;;15.80;7.18;;;24.90;99.90;;;;;;5066857;28;20483;-88
2023/08/17 08:51:52;;;;;;;16.25;8.05;;;25.00;99.90;;;;;;5076035;28;20036;-88
2023/08/17 08:54:24;;;;;;;11.13;6.32;;;25.50;99.90;;;;;;5069144;28;20024;-88
2023/08/17 08:56:58;;;;;;;6.47;5.60;;;26.90;99.90;;;;;;5078119;28;20052;-89
2023/08/17 08:59:26;;;;;;;9.00;6.47;;;28.20;99.90;;;;;;5088184;28;20066;-88
2023/08/17 09:02:15;;;;;;;10.18;6.10;;;29.30;99.90;;;;;;5065878;28;20024;-88
2023/08/17 09:04:42;;;;;;;9.75;6.40;;;29.40;99.90;;;;;;5078267;28;20032;-88
2023/08/17 09:07:10;;;;;;;6.47;5.53;;;30.30;99.90;;;;;;5068088;28;20115;-88
2023/08/17 09:09:37;;;;;;;10.57;5.47;;;30.80;99.90;;;;;;5086978;28;20024;-88
2023/08/17 09:12:04;;;;;;;9.80;5.10;;;31.50;99.90;;;;;;5068831;28;20136;-88
2023/08/17 09:14:30;;;;;;;6.18;4.82;;;31.80;99.90;;;;;;5058698;28;20044;-89
2023/08/17 09:16:58;;;;;;;10.52;4.82;;;32.30;99.90;;;;;;5058031;28;20029;-88
2023/08/17 09:19:25;;;;;;;8.38;4.32;;;32.60;99.90;;;;;;5059503;28;20475;-88
2023/08/17 09:21:51;;;;;;;6.05;4.63;;;33.10;99.90;;;;;;5058737;28;20024;-88
2023/08/17 09:24:16;;;;;;;7.13;4.20;;;33.60;99.90;;;;;;5056134;28;20020;-88
2023/08/17 09:26:42;;;;;;;9.10;4.75;;;33.90;99.90;;;;;;5074992;28;20064;-88
2023/08/17 09:29:18;;;;;;;6.95;3.83;;;34.30;99.90;;;;;;5057758;28;20016;-88
2023/08/17 09:31:44;;;;;;;9.38;4.63;;;34.70;99.90;;;;;;5074782;28;20408;-89
2023/08/17 09:34:10;;;;;;;7.28;4.43;;;34.70;99.90;;;;;;5058079;28;20033;-89
2023/08/17 09:37:17;;;;;;;5.15;4.28;;;35.20;99.90;;;;;;5054924;28;20037;-88
2023/08/17 09:39:42;;;;;;;6.22;3.65;;;35.00;99.90;;;;;;5072619;28;20127;-88
2023/08/17 09:42:10;;;;;;;7.18;4.88;;;34.20;99.90;;;;;;5073630;28;20624;-88
2023/08/17 09:44:37;;;;;;;6.90;4.25;;;33.50;99.90;;;;;;5073261;28;20127;-88
2023/08/17 09:47:05;;;;;;;11.95;4.25;;;33.10;99.90;;;;;;5057665;28;20348;-89
2023/08/17 09:49:55;;;;;;;6.63;4.28;;;33.20;99.90;;;;;;5058157;28;20484;-88
2023/08/17 09:52:23;;;;;;;9.00;5.00;;;33.40;99.90;;;;;;5052536;28;20475;-88
2023/08/17 09:54:52;;;;;;;4.88;4.38;;;32.90;99.90;;;;;;5057127;28;20083;-88
2023/08/17 09:57:17;;;;;;;5.07;4.53;;;32.40;99.90;;;;;;5074647;28;20024;-88
2023/08/17 09:59:43;;;;;;;6.15;4.57;;;31.70;99.90;;;;;;5074006;28;20112;-88
2023/08/17 10:02:19;;;;;;;7.60;5.03;;;31.10;99.90;;;;;;5057922;28;20028;-89
2023/08/17 10:04:51;;;;;;;7.63;4.45;;;31.00;99.90;;;;;;5072234;28;20028;-88
2023/08/17 10:07:23;;;;;;;7.00;4.35;;;30.80;99.90;;;;;;5069831;28;20056;-88
2023/08/17 10:10:06;;;;;;;6.18;4.43;;;30.40;99.90;;;;;;5074545;28;20768;-89
2023/08/17 10:13:19;;;;;;;5.85;4.30;;;29.80;99.90;;;;;;5073183;28;20430;-88
2023/08/17 10:16:11;;;;;;;6.00;4.10;;;30.10;99.90;;;;;;5077134;28;20033;-88
2023/08/17 10:18:46;;;;;;;6.22;4.10;;;30.70;99.90;;;;;;5070430;28;20028;-88
2023/08/17 10:21:27;;;;;;;9.68;4.43;;;31.00;99.90;;;;;;5066564;28;20393;-88
2023/08/17 10:23:54;;;;;;;10.48;4.93;;;31.40;99.90;;;;;;5057529;28;20353;-89
2023/08/17 10:26:21;;;;;;;7.13;4.15;;;31.20;99.90;;;;;;5070742;28;20054;-89
2023/08/17 10:28:48;;;;;;;5.53;4.10;;;31.70;99.90;;;;;;5074160;28;20064;-88
2023/08/17 10:31:14;;;;;;;12.48;4.47;;;32.40;99.90;;;;;;5070704;28;20036;-89
2023/08/17 10:37:28;;;;;;;8.52;4.18;;;32.60;99.90;;;;;;5070978;28;20028;-89
2023/08/17 10:39:53;;;;;;;10.65;4.30;;;32.70;99.90;;;;;;5073551;28;20388;-89
2023/08/17 10:42:33;;;;;;;4.75;4.22;;;33.20;99.90;;;;;;5078770;28;20039;-88
2023/08/17 10:45:01;;;;;;;9.52;4.78;;;33.00;99.90;;;;;;5064974;28;20067;-88
2023/08/17 10:47:32;;;;;;;10.35;4.30;;;32.80;99.90;;;;;;5062100;28;20548;-88
2023/08/17 10:50:07;;;;;;;8.23;4.88;;;32.90;99.90;;;;;;5067635;28;20028;-90
2023/08/17 10:52:35;;;;;;;7.28;4.85;;;32.30;99.90;;;;;;5079785;28;20483;-89
2023/08/17 10:55:05;;;;;;;12.02;4.63;;;32.10;99.90;;;;;;5061277;28;20055;-89
2023/08/17 10:57:37;;;;;;;7.00;3.95;;;31.70;99.90;;;;;;5065516;28;20127;-89
2023/08/17 11:00:31;;;;;;;6.68;4.30;;;32.20;99.90;;;;;;5068627;28;20025;-89
2023/08/17 11:03:01;;;;;;;7.30;4.32;;;32.30;99.90;;;;;;5067406;28;20040;-89
2023/08/17 11:05:49;;;;;;;6.20;3.80;;;32.60;99.90;;;;;;5079482;28;20115;-89
2023/08/17 11:08:51;;;;;;;7.28;3.60;;;32.50;99.90;;;;;;5054216;28;20024;-89
2023/08/17 11:11:20;;;;;;;4.50;3.42;;;32.80;99.90;;;;;;5063355;28;20047;-89
2023/08/17 11:13:47;;;;;;;4.40;3.47;;;33.10;99.90;;;;;;5079767;28;20025;-89
2023/08/17 11:16:19;;;;;;;5.53;3.17;;;33.00;99.90;;;;;;5080722;28;20086;-89
2023/08/17 11:18:49;;;;;;;5.00;3.13;;;32.70;99.90;;;;;;5065997;28;20081;-89
2023/08/17 11:21:15;;;;;;;6.60;3.58;;;33.40;99.90;;;;;;5060510;28;20036;-89
2023/08/17 11:23:42;;;;;;;17.65;3.00;;;33.70;99.80;;;;;;5076782;28;20028;-89
2023/08/17 11:26:08;;;;;;;4.50;3.00;;;34.00;98.70;;;;;;5062022;28;20410;-88
2023/08/17 11:28:38;;;;;;;4.28;3.60;;;33.90;99.40;;;;;;5061561;28;20112;-88
2023/08/17 11:31:09;;;;;;;5.40;3.17;;;33.90;99.90;;;;;;5062598;28;20028;-89
2023/08/17 11:33:37;;;;;;;3.45;2.95;;;34.00;99.70;;;;;;5062813;28;20028;-88
2023/08/17 11:36:05;;;;;;;4.53;3.42;;;33.80;99.90;;;;;;5064299;28;20020;-89
2023/08/17 11:38:37;;;;;;;4.28;3.40;;;33.30;98.80;;;;;;5064455;28;20021;-89
2023/08/17 11:41:03;;;;;;;3.15;2.95;;;33.30;98.40;;;;;;5063299;28;20059;-89
2023/08/17 11:43:47;;;;;;;6.22;3.17;;;34.00;97.60;;;;;;5078506;28;20063;-89
2023/08/17 11:46:13;;;;;;;4.63;3.15;;;34.00;96.40;;;;;;5065914;28;20036;-89
2023/08/17 11:48:39;;;;;;;4.07;3.03;;;34.40;95.70;;;;;;5078513;28;20087;-89
2023/08/17 11:51:36;;;;;;;3.60;2.90;;;34.10;96.30;;;;;;5076065;28;20090;-88
2023/08/17 11:54:03;;;;;;;3.67;3.17;;;34.30;96.80;;;;;;5064129;28;20103;-89
2023/08/17 11:56:29;;;;;;;6.90;3.33;;;34.60;96.00;;;;;;5061453;28;20058;-89
2023/08/17 11:58:55;;;;;;;7.70;3.50;;;34.90;95.60;;;;;;5066040;28;20073;-90
2023/08/17 12:01:20;;;;;;;5.68;3.15;;;34.80;97.00;;;;;;5078940;28;20033;-89
2023/08/17 12:03:48;;;;;;;9.90;3.83;;;34.40;98.50;;;;;;5061341;28;20737;-89
2023/08/17 12:06:16;;;;;;;5.15;3.90;;;33.60;98.40;;;;;;5063796;28;20024;-89
2023/08/17 12:08:47;;;;;;;6.50;3.75;;;33.30;99.60;;;;;;5063738;28;20108;-89
2023/08/17 12:11:12;;;;;;;6.65;3.53;;;32.90;99.90;;;;;;5073244;28;20475;-88
2023/08/17 12:13:38;;;;;;;6.10;4.05;;;32.40;99.90;;;;;;5082376;28;20024;-89
2023/08/17 12:16:04;;;;;;;12.68;4.03;;;32.30;99.90;;;;;;5058173;28;20043;-89
2023/08/17 12:18:34;;;;;;;4.80;3.70;;;32.50;99.90;;;;;;5084151;28;20743;-89
2023/08/17 12:21:00;;;;;;;12.88;4.10;;;32.20;99.90;;;;;;5059713;28;20025;-89
2023/08/17 12:23:26;;;;;;;5.57;3.58;;;31.70;99.90;;;;;;5078940;28;20017;-89
2023/08/17 12:25:55;;;;;;;6.82;3.95;;;31.50;99.90;;;;;;5059939;28;20082;-88
2023/08/17 12:28:23;;;;;;;10.35;3.97;;;31.70;99.90;;;;;;5064111;28;20116;-89
2023/08/17 12:31:00;;;;;;;5.70;4.38;;;31.40;99.90;;;;;;5077746;28;20036;-88
2023/08/17 12:33:26;;;;;;;6.05;3.90;;;30.30;99.90;;;;;;5081739;28;20039;-88
2023/08/17 12:35:52;;;;;;;5.35;3.80;;;29.70;99.90;;;;;;5079359;28;20052;-88
2023/08/17 12:38:17;;;;;;;8.30;3.60;;;29.40;99.90;;;;;;5076162;28;20048;-88
2023/08/17 12:40:44;;;;;;;5.00;3.83;;;29.20;99.90;;;;;;5081176;28;20025;-89
2023/08/17 12:43:09;;;;;;;4.40;3.75;;;29.10;99.90;;;;;;5061160;28;20064;-88
2023/08/17 12:45:35;;;;;;;5.65;4.20;;;28.50;99.90;;;;;;5064198;28;20075;-88
2023/08/17 12:48:01;;;;;;;8.40;4.38;;;28.30;99.90;;;;;;5080524;28;20039;-88
2023/08/17 12:50:35;;;;;;;6.20;4.70;;;28.00;99.90;;;;;;5075539;28;20039;-88
2023/08/17 12:53:01;;;;;;;8.60;5.22;;;28.10;99.90;;;;;;5059082;28;20657;-88
2023/08/17 12:55:27;;;;;;;4.85;4.38;;;28.30;99.90;;;;;;5060319;28;20035;-88